sensor_id;sensor_type;location;lat;lon;timestamp;P1;durP1;ratioP1;P2;durP2;ratioP2
3337;SDS011;1682;49.286;10.788;2023-07-29T00:01:47;6.27;;;5.67;;
3337;SDS011;1682;49.286;10.788;2023-07-29T00:04:35;5.60;;;5.10;;
3337;SDS011;1682;49.286;10.788;2023-07-29T00:07:24;5.57;;;5.07;;
3337;SDS011;1682;49.286;10.788;2023-07-29T00:10:12;6.30;;;5.80;;
3337;SDS011;1682;49.286;10.788;2023-07-29T00:12:59;5.70;;;5.03;;
3337;SDS011;1682;49.286;10.788;2023-07-29T00:15:46;5.73;;;5.20;;
3337;SDS011;1682;49.286;10.788;2023-07-29T00:18:34;7.17;;;5.30;;
3337;SDS011;1682;49.286;10.788;2023-07-29T00:21:21;6.83;;;6.23;;
3337;SDS011;1682;49.286;10.788;2023-07-29T00:24:10;6.93;;;6.23;;
3337;SDS011;1682;49.286;10.788;2023-07-29T00:26:58;6.43;;;5.83;;
3337;SDS011;1682;49.286;10.788;2023-07-29T00:29:45;9.57;;;6.07;;
3337;SDS011;1682;49.286;10.788;2023-07-29T00:32:35;6.27;;;5.67;;
3337;SDS011;1682;49.286;10.788;2023-07-29T00:35:22;8.93;;;6.80;;
3337;SDS011;1682;49.286;10.788;2023-07-29T00:38:10;7.70;;;5.70;;
3337;SDS011;1682;49.286;10.788;2023-07-29T00:40:58;10.27;;;5.47;;
3337;SDS011;1682;49.286;10.788;2023-07-29T00:43:47;5.70;;;5.20;;
3337;SDS011;1682;49.286;10.788;2023-07-29T00:46:35;6.57;;;5.97;;
3337;SDS011;1682;49.286;10.788;2023-07-29T00:49:23;6.00;;;5.50;;
3337;SDS011;1682;49.286;10.788;2023-07-29T00:52:11;6.23;;;5.67;;
3337;SDS011;1682;49.286;10.788;2023-07-29T00:54:58;6.10;;;5.60;;
3337;SDS011;1682;49.286;10.788;2023-07-29T00:57:47;6.97;;;6.37;;
3337;SDS011;1682;49.286;10.788;2023-07-29T01:00:36;6.00;;;5.40;;
3337;SDS011;1682;49.286;10.788;2023-07-29T01:03:24;7.80;;;6.37;;
3337;SDS011;1682;49.286;10.788;2023-07-29T01:06:12;8.17;;;6.90;;
3337;SDS011;1682;49.286;10.788;2023-07-29T01:09:01;7.47;;;6.77;;
3337;SDS011;1682;49.286;10.788;2023-07-29T01:11:53;6.30;;;5.70;;
3337;SDS011;1682;49.286;10.788;2023-07-29T01:14:45;8.60;;;7.13;;
3337;SDS011;1682;49.286;10.788;2023-07-29T01:17:36;9.37;;;6.90;;
3337;SDS011;1682;49.286;10.788;2023-07-29T01:20:26;8.43;;;7.50;;
3337;SDS011;1682;49.286;10.788;2023-07-29T01:23:15;9.83;;;7.57;;
3337;SDS011;1682;49.286;10.788;2023-07-29T01:26:04;8.23;;;6.90;;
3337;SDS011;1682;49.286;10.788;2023-07-29T01:28:52;9.77;;;8.77;;
3337;SDS011;1682;49.286;10.788;2023-07-29T01:31:40;10.07;;;7.80;;
3337;SDS011;1682;49.286;10.788;2023-07-29T01:34:29;9.00;;;7.20;;
3337;SDS011;1682;49.286;10.788;2023-07-29T01:37:21;8.57;;;7.40;;
3337;SDS011;1682;49.286;10.788;2023-07-29T01:40:09;7.37;;;6.67;;
3337;SDS011;1682;49.286;10.788;2023-07-29T01:42:58;9.03;;;7.13;;
3337;SDS011;1682;49.286;10.788;2023-07-29T01:45:46;8.57;;;7.67;;
3337;SDS011;1682;49.286;10.788;2023-07-29T01:48:33;12.10;;;10.03;;
3337;SDS011;1682;49.286;10.788;2023-07-29T01:51:21;13.90;;;9.40;;
3337;SDS011;1682;49.286;10.788;2023-07-29T01:54:08;12.73;;;9.80;;
3337;SDS011;1682;49.286;10.788;2023-07-29T01:56:56;14.23;;;11.23;;
3337;SDS011;1682;49.286;10.788;2023-07-29T01:59:45;36.13;;;20.50;;
3337;SDS011;1682;49.286;10.788;2023-07-29T02:02:33;20.53;;;14.37;;
3337;SDS011;1682;49.286;10.788;2023-07-29T02:05:20;32.13;;;18.80;;
3337;SDS011;1682;49.286;10.788;2023-07-29T02:08:08;39.40;;;25.47;;
3337;SDS011;1682;49.286;10.788;2023-07-29T02:10:55;22.60;;;17.33;;
3337;SDS011;1682;49.286;10.788;2023-07-29T02:13:43;12.00;;;8.33;;
3337;SDS011;1682;49.286;10.788;2023-07-29T02:16:31;13.10;;;10.07;;
3337;SDS011;1682;49.286;10.788;2023-07-29T02:19:19;10.70;;;8.90;;
3337;SDS011;1682;49.286;10.788;2023-07-29T02:22:07;10.10;;;7.90;;
3337;SDS011;1682;49.286;10.788;2023-07-29T02:24:55;13.57;;;8.87;;
3337;SDS011;1682;49.286;10.788;2023-07-29T02:27:42;11.53;;;8.27;;
3337;SDS011;1682;49.286;10.788;2023-07-29T02:30:30;8.37;;;7.30;;
3337;SDS011;1682;49.286;10.788;2023-07-29T02:33:19;14.13;;;9.20;;
3337;SDS011;1682;49.286;10.788;2023-07-29T02:36:06;15.00;;;10.33;;
3337;SDS011;1682;49.286;10.788;2023-07-29T02:38:54;10.47;;;7.93;;
3337;SDS011;1682;49.286;10.788;2023-07-29T02:41:41;13.60;;;8.37;;
3337;SDS011;1682;49.286;10.788;2023-07-29T02:44:29;13.33;;;9.37;;
3337;SDS011;1682;49.286;10.788;2023-07-29T02:47:16;16.47;;;11.07;;
3337;SDS011;1682;49.286;10.788;2023-07-29T02:50:06;8.83;;;7.53;;
3337;SDS011;1682;49.286;10.788;2023-07-29T02:52:53;10.03;;;7.33;;
3337;SDS011;1682;49.286;10.788;2023-07-29T02:55:41;12.57;;;7.80;;
3337;SDS011;1682;49.286;10.788;2023-07-29T02:58:28;8.07;;;7.27;;
3337;SDS011;1682;49.286;10.788;2023-07-29T03:01:16;8.90;;;6.30;;
3337;SDS011;1682;49.286;10.788;2023-07-29T03:04:04;8.47;;;6.00;;
3337;SDS011;1682;49.286;10.788;2023-07-29T03:06:52;7.13;;;6.03;;
3337;SDS011;1682;49.286;10.788;2023-07-29T03:09:40;5.40;;;4.70;;
3337;SDS011;1682;49.286;10.788;2023-07-29T03:12:27;6.30;;;5.53;;
3337;SDS011;1682;49.286;10.788;2023-07-29T03:15:15;7.07;;;5.87;;
3337;SDS011;1682;49.286;10.788;2023-07-29T03:18:02;5.27;;;4.77;;
3337;SDS011;1682;49.286;10.788;2023-07-29T03:20:50;4.63;;;4.23;;
3337;SDS011;1682;49.286;10.788;2023-07-29T03:23:39;6.53;;;5.93;;
3337;SDS011;1682;49.286;10.788;2023-07-29T03:26:26;5.10;;;4.57;;
3337;SDS011;1682;49.286;10.788;2023-07-29T03:29:14;10.97;;;5.63;;
3337;SDS011;1682;49.286;10.788;2023-07-29T03:32:01;5.60;;;4.70;;
3337;SDS011;1682;49.286;10.788;2023-07-29T03:34:49;4.50;;;4.10;;
3337;SDS011;1682;49.286;10.788;2023-07-29T03:37:36;7.20;;;4.30;;
3337;SDS011;1682;49.286;10.788;2023-07-29T03:40:25;5.00;;;4.30;;
3337;SDS011;1682;49.286;10.788;2023-07-29T03:43:12;7.90;;;4.07;;
3337;SDS011;1682;49.286;10.788;2023-07-29T03:46:00;4.27;;;3.90;;
3337;SDS011;1682;49.286;10.788;2023-07-29T03:48:48;11.10;;;3.73;;
3337;SDS011;1682;49.286;10.788;2023-07-29T03:51:35;5.90;;;4.30;;
3337;SDS011;1682;49.286;10.788;2023-07-29T03:54:23;4.30;;;3.90;;
3337;SDS011;1682;49.286;10.788;2023-07-29T03:57:11;3.83;;;3.50;;
3337;SDS011;1682;49.286;10.788;2023-07-29T03:59:59;8.63;;;7.00;;
3337;SDS011;1682;49.286;10.788;2023-07-29T04:02:47;10.20;;;6.83;;
3337;SDS011;1682;49.286;10.788;2023-07-29T04:05:34;3.83;;;3.47;;
3337;SDS011;1682;49.286;10.788;2023-07-29T04:08:22;3.03;;;2.83;;
3337;SDS011;1682;49.286;10.788;2023-07-29T04:11:09;9.43;;;5.50;;
3337;SDS011;1682;49.286;10.788;2023-07-29T04:13:58;5.43;;;4.93;;
3337;SDS011;1682;49.286;10.788;2023-07-29T04:16:46;3.23;;;3.03;;
3337;SDS011;1682;49.286;10.788;2023-07-29T04:19:34;3.37;;;3.17;;
3337;SDS011;1682;49.286;10.788;2023-07-29T04:22:22;4.13;;;3.83;;
3337;SDS011;1682;49.286;10.788;2023-07-29T04:25:09;2.73;;;2.53;;
3337;SDS011;1682;49.286;10.788;2023-07-29T04:27:58;4.20;;;3.80;;
3337;SDS011;1682;49.286;10.788;2023-07-29T04:30:47;59.40;;;48.40;;
3337;SDS011;1682;49.286;10.788;2023-07-29T04:33:35;17.63;;;16.30;;
3337;SDS011;1682;49.286;10.788;2023-07-29T04:36:22;7.80;;;7.20;;
3337;SDS011;1682;49.286;10.788;2023-07-29T04:39:10;4.77;;;4.40;;
3337;SDS011;1682;49.286;10.788;2023-07-29T04:41:57;4.00;;;3.70;;
3337;SDS011;1682;49.286;10.788;2023-07-29T04:44:46;4.20;;;3.80;;
3337;SDS011;1682;49.286;10.788;2023-07-29T04:47:35;6.40;;;4.70;;
3337;SDS011;1682;49.286;10.788;2023-07-29T04:50:22;7.87;;;7.27;;
3337;SDS011;1682;49.286;10.788;2023-07-29T04:53:10;7.83;;;7.20;;
3337;SDS011;1682;49.286;10.788;2023-07-29T04:55:58;6.60;;;6.10;;
3337;SDS011;1682;49.286;10.788;2023-07-29T04:58:45;21.03;;;18.80;;
3337;SDS011;1682;49.286;10.788;2023-07-29T05:01:33;8.93;;;8.03;;
3337;SDS011;1682;49.286;10.788;2023-07-29T05:04:22;10.53;;;9.50;;
3337;SDS011;1682;49.286;10.788;2023-07-29T05:07:10;30.63;;;27.60;;
3337;SDS011;1682;49.286;10.788;2023-07-29T05:09:57;7.07;;;6.47;;
3337;SDS011;1682;49.286;10.788;2023-07-29T05:12:45;12.80;;;11.60;;
3337;SDS011;1682;49.286;10.788;2023-07-29T05:15:32;10.17;;;9.17;;
3337;SDS011;1682;49.286;10.788;2023-07-29T05:18:20;6.70;;;6.20;;
3337;SDS011;1682;49.286;10.788;2023-07-29T05:21:09;6.17;;;5.77;;
3337;SDS011;1682;49.286;10.788;2023-07-29T05:23:59;5.43;;;4.93;;
3337;SDS011;1682;49.286;10.788;2023-07-29T05:26:47;3.90;;;3.60;;
3337;SDS011;1682;49.286;10.788;2023-07-29T05:29:34;4.00;;;3.40;;
3337;SDS011;1682;49.286;10.788;2023-07-29T05:32:22;3.67;;;3.37;;
3337;SDS011;1682;49.286;10.788;2023-07-29T05:35:09;4.03;;;3.60;;
3337;SDS011;1682;49.286;10.788;2023-07-29T05:37:58;7.03;;;4.60;;
3337;SDS011;1682;49.286;10.788;2023-07-29T05:40:47;5.57;;;4.17;;
3337;SDS011;1682;49.286;10.788;2023-07-29T05:43:35;5.37;;;4.87;;
3337;SDS011;1682;49.286;10.788;2023-07-29T05:46:22;5.13;;;4.63;;
3337;SDS011;1682;49.286;10.788;2023-07-29T05:49:10;6.17;;;5.67;;
3337;SDS011;1682;49.286;10.788;2023-07-29T05:51:57;5.80;;;5.40;;
3337;SDS011;1682;49.286;10.788;2023-07-29T05:54:46;5.83;;;4.57;;
3337;SDS011;1682;49.286;10.788;2023-07-29T05:57:34;3.63;;;3.13;;
3337;SDS011;1682;49.286;10.788;2023-07-29T06:00:21;6.20;;;3.47;;
3337;SDS011;1682;49.286;10.788;2023-07-29T06:03:09;3.90;;;3.50;;
3337;SDS011;1682;49.286;10.788;2023-07-29T06:05:56;10.07;;;4.77;;
3337;SDS011;1682;49.286;10.788;2023-07-29T06:08:44;10.47;;;4.17;;
3337;SDS011;1682;49.286;10.788;2023-07-29T06:11:33;3.90;;;3.60;;
3337;SDS011;1682;49.286;10.788;2023-07-29T06:14:20;4.70;;;4.30;;
3337;SDS011;1682;49.286;10.788;2023-07-29T06:17:07;4.40;;;4.07;;
3337;SDS011;1682;49.286;10.788;2023-07-29T06:19:56;6.07;;;4.63;;
3337;SDS011;1682;49.286;10.788;2023-07-29T06:22:44;4.57;;;4.27;;
3337;SDS011;1682;49.286;10.788;2023-07-29T06:25:31;3.97;;;3.67;;
3337;SDS011;1682;49.286;10.788;2023-07-29T06:28:20;4.37;;;3.97;;
3337;SDS011;1682;49.286;10.788;2023-07-29T06:31:08;5.20;;;4.70;;
3337;SDS011;1682;49.286;10.788;2023-07-29T06:33:55;6.97;;;5.20;;
3337;SDS011;1682;49.286;10.788;2023-07-29T06:36:43;9.10;;;5.80;;
3337;SDS011;1682;49.286;10.788;2023-07-29T06:39:31;5.70;;;4.87;;
3337;SDS011;1682;49.286;10.788;2023-07-29T06:42:18;5.50;;;5.00;;
3337;SDS011;1682;49.286;10.788;2023-07-29T06:45:08;5.97;;;5.17;;
3337;SDS011;1682;49.286;10.788;2023-07-29T06:47:55;7.60;;;6.80;;
3337;SDS011;1682;49.286;10.788;2023-07-29T06:50:43;5.17;;;4.67;;
3337;SDS011;1682;49.286;10.788;2023-07-29T06:53:30;6.47;;;5.23;;
3337;SDS011;1682;49.286;10.788;2023-07-29T06:56:18;12.23;;;6.23;;
3337;SDS011;1682;49.286;10.788;2023-07-29T06:59:05;5.00;;;4.60;;
3337;SDS011;1682;49.286;10.788;2023-07-29T07:01:54;6.80;;;5.50;;
3337;SDS011;1682;49.286;10.788;2023-07-29T07:04:41;10.33;;;7.70;;
3337;SDS011;1682;49.286;10.788;2023-07-29T07:07:29;7.37;;;6.67;;
3337;SDS011;1682;49.286;10.788;2023-07-29T07:10:17;6.70;;;6.00;;
3337;SDS011;1682;49.286;10.788;2023-07-29T07:13:05;12.90;;;5.83;;
3337;SDS011;1682;49.286;10.788;2023-07-29T07:15:53;6.17;;;5.60;;
3337;SDS011;1682;49.286;10.788;2023-07-29T07:18:43;9.70;;;8.70;;
3337;SDS011;1682;49.286;10.788;2023-07-29T07:21:30;8.57;;;7.87;;
3337;SDS011;1682;49.286;10.788;2023-07-29T07:24:18;9.23;;;6.03;;
3337;SDS011;1682;49.286;10.788;2023-07-29T07:27:06;7.87;;;7.10;;
3337;SDS011;1682;49.286;10.788;2023-07-29T07:29:53;7.50;;;6.50;;
3337;SDS011;1682;49.286;10.788;2023-07-29T07:32:41;8.20;;;5.80;;
3337;SDS011;1682;49.286;10.788;2023-07-29T07:35:30;12.40;;;6.70;;
3337;SDS011;1682;49.286;10.788;2023-07-29T07:38:17;6.73;;;5.90;;
3337;SDS011;1682;49.286;10.788;2023-07-29T07:41:05;8.17;;;6.70;;
3337;SDS011;1682;49.286;10.788;2023-07-29T07:43:52;8.60;;;7.57;;
3337;SDS011;1682;49.286;10.788;2023-07-29T07:46:40;7.40;;;6.70;;
3337;SDS011;1682;49.286;10.788;2023-07-29T07:49:27;5.53;;;4.77;;
3337;SDS011;1682;49.286;10.788;2023-07-29T07:52:16;6.33;;;5.73;;
3337;SDS011;1682;49.286;10.788;2023-07-29T07:55:04;5.77;;;5.37;;
3337;SDS011;1682;49.286;10.788;2023-07-29T07:57:51;9.60;;;6.50;;
3337;SDS011;1682;49.286;10.788;2023-07-29T08:00:39;9.13;;;6.93;;
3337;SDS011;1682;49.286;10.788;2023-07-29T08:03:26;4.95;;;4.55;;
3337;SDS011;1682;49.286;10.788;2023-07-29T08:06:14;5.60;;;4.67;;
3337;SDS011;1682;49.286;10.788;2023-07-29T08:09:03;6.73;;;4.30;;
3337;SDS011;1682;49.286;10.788;2023-07-29T08:11:50;4.87;;;4.27;;
3337;SDS011;1682;49.286;10.788;2023-07-29T08:14:38;5.90;;;4.80;;
3337;SDS011;1682;49.286;10.788;2023-07-29T08:17:25;6.10;;;5.50;;
3337;SDS011;1682;49.286;10.788;2023-07-29T08:20:13;5.93;;;5.43;;
3337;SDS011;1682;49.286;10.788;2023-07-29T08:23:00;5.17;;;4.60;;
3337;SDS011;1682;49.286;10.788;2023-07-29T08:25:52;5.77;;;5.17;;
3337;SDS011;1682;49.286;10.788;2023-07-29T08:28:41;6.60;;;4.70;;
3337;SDS011;1682;49.286;10.788;2023-07-29T08:31:29;5.97;;;5.37;;
3337;SDS011;1682;49.286;10.788;2023-07-29T08:34:18;9.00;;;6.70;;
3337;SDS011;1682;49.286;10.788;2023-07-29T08:37:06;6.10;;;5.40;;
3337;SDS011;1682;49.286;10.788;2023-07-29T08:39:54;7.40;;;5.60;;
3337;SDS011;1682;49.286;10.788;2023-07-29T08:42:42;5.73;;;5.20;;
3337;SDS011;1682;49.286;10.788;2023-07-29T08:45:32;6.30;;;5.50;;
3337;SDS011;1682;49.286;10.788;2023-07-29T08:48:23;8.73;;;6.03;;
3337;SDS011;1682;49.286;10.788;2023-07-29T08:51:11;5.20;;;4.60;;
3337;SDS011;1682;49.286;10.788;2023-07-29T08:53:59;6.50;;;5.83;;
3337;SDS011;1682;49.286;10.788;2023-07-29T08:56:47;5.60;;;5.00;;
3337;SDS011;1682;49.286;10.788;2023-07-29T08:59:36;5.93;;;5.33;;
3337;SDS011;1682;49.286;10.788;2023-07-29T09:02:24;8.30;;;5.57;;
3337;SDS011;1682;49.286;10.788;2023-07-29T09:05:12;6.10;;;5.50;;
3337;SDS011;1682;49.286;10.788;2023-07-29T09:07:59;6.73;;;6.07;;
3337;SDS011;1682;49.286;10.788;2023-07-29T09:10:49;9.57;;;5.67;;
3337;SDS011;1682;49.286;10.788;2023-07-29T09:13:37;6.47;;;5.10;;
3337;SDS011;1682;49.286;10.788;2023-07-29T09:16:25;9.47;;;5.87;;
3337;SDS011;1682;49.286;10.788;2023-07-29T09:19:13;6.40;;;5.80;;
3337;SDS011;1682;49.286;10.788;2023-07-29T09:22:01;6.40;;;5.80;;
3337;SDS011;1682;49.286;10.788;2023-07-29T09:24:48;6.17;;;5.20;;
3337;SDS011;1682;49.286;10.788;2023-07-29T09:27:36;6.10;;;4.50;;
3337;SDS011;1682;49.286;10.788;2023-07-29T09:30:25;5.47;;;4.90;;
3337;SDS011;1682;49.286;10.788;2023-07-29T09:33:14;3.93;;;3.63;;
3337;SDS011;1682;49.286;10.788;2023-07-29T09:36:01;4.57;;;4.17;;
3337;SDS011;1682;49.286;10.788;2023-07-29T09:38:51;3.50;;;3.20;;
3337;SDS011;1682;49.286;10.788;2023-07-29T09:41:39;4.40;;;4.00;;
3337;SDS011;1682;49.286;10.788;2023-07-29T09:44:26;4.23;;;3.83;;
3337;SDS011;1682;49.286;10.788;2023-07-29T09:47:18;3.30;;;2.97;;
3337;SDS011;1682;49.286;10.788;2023-07-29T09:50:08;2.87;;;2.67;;
3337;SDS011;1682;49.286;10.788;2023-07-29T09:52:56;2.93;;;2.73;;
3337;SDS011;1682;49.286;10.788;2023-07-29T09:55:46;2.93;;;2.73;;
3337;SDS011;1682;49.286;10.788;2023-07-29T09:58:34;2.10;;;1.77;;
3337;SDS011;1682;49.286;10.788;2023-07-29T10:01:23;1.80;;;1.70;;
3337;SDS011;1682;49.286;10.788;2023-07-29T10:04:11;3.93;;;2.30;;
3337;SDS011;1682;49.286;10.788;2023-07-29T10:07:01;3.00;;;2.50;;
3337;SDS011;1682;49.286;10.788;2023-07-29T10:09:49;2.43;;;2.30;;
3337;SDS011;1682;49.286;10.788;2023-07-29T10:12:39;2.33;;;2.23;;
3337;SDS011;1682;49.286;10.788;2023-07-29T10:15:28;3.10;;;2.20;;
3337;SDS011;1682;49.286;10.788;2023-07-29T10:18:16;2.43;;;2.30;;
3337;SDS011;1682;49.286;10.788;2023-07-29T10:21:04;1.83;;;1.73;;
3337;SDS011;1682;49.286;10.788;2023-07-29T10:23:53;2.20;;;2.00;;
3337;SDS011;1682;49.286;10.788;2023-07-29T10:26:47;1.83;;;1.73;;
3337;SDS011;1682;49.286;10.788;2023-07-29T10:29:37;1.90;;;1.80;;
3337;SDS011;1682;49.286;10.788;2023-07-29T10:32:25;2.87;;;2.67;;
3337;SDS011;1682;49.286;10.788;2023-07-29T10:35:13;1.87;;;1.77;;
3337;SDS011;1682;49.286;10.788;2023-07-29T10:38:01;1.87;;;1.70;;
3337;SDS011;1682;49.286;10.788;2023-07-29T10:40:52;1.93;;;1.60;;
3337;SDS011;1682;49.286;10.788;2023-07-29T10:43:41;2.40;;;2.20;;
3337;SDS011;1682;49.286;10.788;2023-07-29T10:46:28;2.57;;;2.20;;
3337;SDS011;1682;49.286;10.788;2023-07-29T10:49:22;2.03;;;1.93;;
3337;SDS011;1682;49.286;10.788;2023-07-29T10:52:12;1.77;;;1.67;;
3337;SDS011;1682;49.286;10.788;2023-07-29T10:55:01;2.60;;;2.40;;
3337;SDS011;1682;49.286;10.788;2023-07-29T10:57:50;2.17;;;1.70;;
3337;SDS011;1682;49.286;10.788;2023-07-29T11:00:38;2.95;;;2.25;;
3337;SDS011;1682;49.286;10.788;2023-07-29T11:03:26;2.10;;;1.90;;
3337;SDS011;1682;49.286;10.788;2023-07-29T11:06:15;2.10;;;2.00;;
3337;SDS011;1682;49.286;10.788;2023-07-29T11:09:03;3.00;;;1.43;;
3337;SDS011;1682;49.286;10.788;2023-07-29T11:15:15;3.00;;;2.10;;
3337;SDS011;1682;49.286;10.788;2023-07-29T11:18:03;2.07;;;1.97;;
3337;SDS011;1682;49.286;10.788;2023-07-29T11:20:50;1.90;;;1.80;;
3337;SDS011;1682;49.286;10.788;2023-07-29T11:23:40;1.83;;;1.70;;
3337;SDS011;1682;49.286;10.788;2023-07-29T11:26:28;1.73;;;1.60;;
3337;SDS011;1682;49.286;10.788;2023-07-29T11:29:15;2.10;;;1.90;;
3337;SDS011;1682;49.286;10.788;2023-07-29T11:32:05;2.17;;;1.97;;
3337;SDS011;1682;49.286;10.788;2023-07-29T11:34:54;3.50;;;2.50;;
3337;SDS011;1682;49.286;10.788;2023-07-29T11:37:43;3.30;;;2.30;;
3337;SDS011;1682;49.286;10.788;2023-07-29T11:40:31;2.00;;;1.90;;
3337;SDS011;1682;49.286;10.788;2023-07-29T11:43:18;2.30;;;1.97;;
3337;SDS011;1682;49.286;10.788;2023-07-29T11:46:05;2.13;;;2.03;;
3337;SDS011;1682;49.286;10.788;2023-07-29T11:48:54;2.30;;;2.10;;
3337;SDS011;1682;49.286;10.788;2023-07-29T11:51:42;4.33;;;3.33;;
3337;SDS011;1682;49.286;10.788;2023-07-29T11:54:29;1.93;;;1.83;;
3337;SDS011;1682;49.286;10.788;2023-07-29T11:57:17;1.60;;;1.50;;
3337;SDS011;1682;49.286;10.788;2023-07-29T12:00:05;2.20;;;2.00;;
3337;SDS011;1682;49.286;10.788;2023-07-29T12:02:55;1.77;;;1.67;;
3337;SDS011;1682;49.286;10.788;2023-07-29T12:05:44;1.40;;;1.30;;
3337;SDS011;1682;49.286;10.788;2023-07-29T12:11:19;3.03;;;1.60;;
3337;SDS011;1682;49.286;10.788;2023-07-29T12:14:07;1.97;;;1.87;;
3337;SDS011;1682;49.286;10.788;2023-07-29T12:16:55;1.10;;;1.10;;
3337;SDS011;1682;49.286;10.788;2023-07-29T12:22:31;1.65;;;1.48;;
3337;SDS011;1682;49.286;10.788;2023-07-29T12:25:19;1.33;;;1.23;;
3337;SDS011;1682;49.286;10.788;2023-07-29T12:28:06;1.60;;;1.50;;
3337;SDS011;1682;49.286;10.788;2023-07-29T12:30:54;1.48;;;1.38;;
3337;SDS011;1682;49.286;10.788;2023-07-29T12:33:41;1.10;;;1.00;;
3337;SDS011;1682;49.286;10.788;2023-07-29T12:36:39;1.27;;;1.27;;
3337;SDS011;1682;49.286;10.788;2023-07-29T12:39:29;1.40;;;1.30;;
3337;SDS011;1682;49.286;10.788;2023-07-29T12:42:17;1.50;;;1.10;;
3337;SDS011;1682;49.286;10.788;2023-07-29T12:47:52;3.25;;;1.60;;
3337;SDS011;1682;49.286;10.788;2023-07-29T12:50:39;0.90;;;0.90;;
3337;SDS011;1682;49.286;10.788;2023-07-29T12:53:27;1.40;;;1.10;;
3337;SDS011;1682;49.286;10.788;2023-07-29T12:56:16;1.70;;;1.00;;
3337;SDS011;1682;49.286;10.788;2023-07-29T12:59:04;1.33;;;1.23;;
3337;SDS011;1682;49.286;10.788;2023-07-29T13:01:52;2.33;;;1.33;;
3337;SDS011;1682;49.286;10.788;2023-07-29T13:04:39;2.15;;;1.20;;
3337;SDS011;1682;49.286;10.788;2023-07-29T13:07:27;1.50;;;1.40;;
3337;SDS011;1682;49.286;10.788;2023-07-29T13:10:14;1.23;;;1.13;;
3337;SDS011;1682;49.286;10.788;2023-07-29T13:13:03;1.33;;;1.23;;
3337;SDS011;1682;49.286;10.788;2023-07-29T13:15:51;1.30;;;1.20;;
3337;SDS011;1682;49.286;10.788;2023-07-29T13:18:39;2.05;;;1.55;;
3337;SDS011;1682;49.286;10.788;2023-07-29T13:21:26;1.00;;;1.00;;
3337;SDS011;1682;49.286;10.788;2023-07-29T13:24:14;2.10;;;2.00;;
3337;SDS011;1682;49.286;10.788;2023-07-29T13:27:02;1.75;;;1.00;;
3337;SDS011;1682;49.286;10.788;2023-07-29T13:29:50;1.48;;;1.38;;
3337;SDS011;1682;49.286;10.788;2023-07-29T13:32:38;1.15;;;1.15;;
3337;SDS011;1682;49.286;10.788;2023-07-29T13:35:25;1.30;;;1.17;;
3337;SDS011;1682;49.286;10.788;2023-07-29T13:38:13;1.33;;;1.23;;
3337;SDS011;1682;49.286;10.788;2023-07-29T13:41:01;0.88;;;0.88;;
3337;SDS011;1682;49.286;10.788;2023-07-29T13:46:37;1.75;;;1.40;;
3337;SDS011;1682;49.286;10.788;2023-07-29T13:49:25;1.30;;;1.20;;
3337;SDS011;1682;49.286;10.788;2023-07-29T13:52:13;1.60;;;1.00;;
3337;SDS011;1682;49.286;10.788;2023-07-29T13:55:01;2.28;;;2.08;;
3337;SDS011;1682;49.286;10.788;2023-07-29T13:57:49;1.50;;;1.17;;
3337;SDS011;1682;49.286;10.788;2023-07-29T14:00:36;1.65;;;1.08;;
3337;SDS011;1682;49.286;10.788;2023-07-29T14:03:25;1.10;;;1.00;;
3337;SDS011;1682;49.286;10.788;2023-07-29T14:06:12;1.30;;;1.20;;
3337;SDS011;1682;49.286;10.788;2023-07-29T14:09:00;0.98;;;0.98;;
3337;SDS011;1682;49.286;10.788;2023-07-29T14:11:48;1.60;;;0.80;;
3337;SDS011;1682;49.286;10.788;2023-07-29T14:14:35;1.75;;;1.65;;
3337;SDS011;1682;49.286;10.788;2023-07-29T14:17:23;1.00;;;1.00;;
3337;SDS011;1682;49.286;10.788;2023-07-29T14:20:12;2.25;;;0.98;;
3337;SDS011;1682;49.286;10.788;2023-07-29T14:22:59;1.13;;;1.08;;
3337;SDS011;1682;49.286;10.788;2023-07-29T14:25:47;1.42;;;1.33;;
3337;SDS011;1682;49.286;10.788;2023-07-29T14:28:34;3.45;;;1.70;;
3337;SDS011;1682;49.286;10.788;2023-07-29T14:31:22;2.17;;;1.60;;
3337;SDS011;1682;49.286;10.788;2023-07-29T14:34:09;1.30;;;1.20;;
3337;SDS011;1682;49.286;10.788;2023-07-29T14:36:58;1.23;;;1.13;;
3337;SDS011;1682;49.286;10.788;2023-07-29T14:39:45;1.10;;;1.10;;
3337;SDS011;1682;49.286;10.788;2023-07-29T14:42:33;1.43;;;1.33;;
3337;SDS011;1682;49.286;10.788;2023-07-29T14:45:20;1.77;;;1.23;;
3337;SDS011;1682;49.286;10.788;2023-07-29T14:48:08;1.17;;;1.07;;
3337;SDS011;1682;49.286;10.788;2023-07-29T14:50:55;1.35;;;1.25;;
3337;SDS011;1682;49.286;10.788;2023-07-29T14:53:44;1.27;;;1.15;;
3337;SDS011;1682;49.286;10.788;2023-07-29T14:56:32;1.92;;;1.17;;
3337;SDS011;1682;49.286;10.788;2023-07-29T14:59:19;2.63;;;1.52;;
3337;SDS011;1682;49.286;10.788;2023-07-29T15:02:07;1.30;;;1.20;;
3337;SDS011;1682;49.286;10.788;2023-07-29T15:04:54;1.48;;;1.20;;
3337;SDS011;1682;49.286;10.788;2023-07-29T15:07:42;1.77;;;1.42;;
3337;SDS011;1682;49.286;10.788;2023-07-29T15:10:31;1.42;;;1.33;;
3337;SDS011;1682;49.286;10.788;2023-07-29T15:13:18;1.80;;;1.70;;
3337;SDS011;1682;49.286;10.788;2023-07-29T15:16:06;1.48;;;1.27;;
3337;SDS011;1682;49.286;10.788;2023-07-29T15:18:53;1.50;;;1.40;;
3337;SDS011;1682;49.286;10.788;2023-07-29T15:21:41;1.38;;;1.20;;
3337;SDS011;1682;49.286;10.788;2023-07-29T15:24:28;2.15;;;2.05;;
3337;SDS011;1682;49.286;10.788;2023-07-29T15:27:17;1.50;;;1.40;;
3337;SDS011;1682;49.286;10.788;2023-07-29T15:30:05;2.85;;;1.40;;
3337;SDS011;1682;49.286;10.788;2023-07-29T15:32:53;1.63;;;1.52;;
3337;SDS011;1682;49.286;10.788;2023-07-29T15:35:40;1.17;;;1.08;;
3337;SDS011;1682;49.286;10.788;2023-07-29T15:38:28;1.20;;;1.10;;
3337;SDS011;1682;49.286;10.788;2023-07-29T15:41:16;1.35;;;1.25;;
3337;SDS011;1682;49.286;10.788;2023-07-29T15:44:04;1.67;;;1.58;;
3337;SDS011;1682;49.286;10.788;2023-07-29T15:46:52;1.27;;;1.27;;
3337;SDS011;1682;49.286;10.788;2023-07-29T15:49:40;1.30;;;1.30;;
3337;SDS011;1682;49.286;10.788;2023-07-29T15:52:28;1.05;;;1.05;;
3337;SDS011;1682;49.286;10.788;2023-07-29T15:55:15;1.40;;;1.30;;
3337;SDS011;1682;49.286;10.788;2023-07-29T15:58:03;2.50;;;2.30;;
3337;SDS011;1682;49.286;10.788;2023-07-29T16:00:52;1.83;;;1.50;;
3337;SDS011;1682;49.286;10.788;2023-07-29T16:03:40;1.93;;;1.73;;
3337;SDS011;1682;49.286;10.788;2023-07-29T16:06:27;1.70;;;1.50;;
3337;SDS011;1682;49.286;10.788;2023-07-29T16:09:15;1.53;;;1.43;;
3337;SDS011;1682;49.286;10.788;2023-07-29T16:12:06;1.60;;;1.50;;
3337;SDS011;1682;49.286;10.788;2023-07-29T16:14:54;2.03;;;1.90;;
3337;SDS011;1682;49.286;10.788;2023-07-29T16:17:43;1.90;;;1.80;;
3337;SDS011;1682;49.286;10.788;2023-07-29T16:20:33;2.47;;;2.37;;
3337;SDS011;1682;49.286;10.788;2023-07-29T16:23:21;2.13;;;1.60;;
3337;SDS011;1682;49.286;10.788;2023-07-29T16:26:08;1.90;;;1.80;;
3337;SDS011;1682;49.286;10.788;2023-07-29T16:28:57;1.63;;;1.53;;
3337;SDS011;1682;49.286;10.788;2023-07-29T16:31:45;2.50;;;2.27;;
3337;SDS011;1682;49.286;10.788;2023-07-29T16:34:34;1.63;;;1.53;;
3337;SDS011;1682;49.286;10.788;2023-07-29T16:37:21;1.63;;;1.53;;
3337;SDS011;1682;49.286;10.788;2023-07-29T16:40:09;4.93;;;3.13;;
3337;SDS011;1682;49.286;10.788;2023-07-29T16:42:57;1.93;;;1.83;;
3337;SDS011;1682;49.286;10.788;2023-07-29T19:40:50;4.63;;;3.53;;
3337;SDS011;1682;49.286;10.788;2023-07-29T19:43:18;2.90;;;2.70;;
3337;SDS011;1682;49.286;10.788;2023-07-29T19:45:45;4.63;;;3.07;;
3337;SDS011;1682;49.286;10.788;2023-07-29T19:48:13;2.50;;;2.30;;
3337;SDS011;1682;49.286;10.788;2023-07-29T19:50:40;2.53;;;2.33;;
3337;SDS011;1682;49.286;10.788;2023-07-29T19:53:08;2.73;;;2.53;;
3337;SDS011;1682;49.286;10.788;2023-07-29T19:55:35;3.77;;;3.20;;
3337;SDS011;1682;49.286;10.788;2023-07-29T19:58:04;2.73;;;1.83;;
3337;SDS011;1682;49.286;10.788;2023-07-29T20:00:31;1.80;;;1.70;;
3337;SDS011;1682;49.286;10.788;2023-07-29T20:02:58;1.60;;;1.50;;
3337;SDS011;1682;49.286;10.788;2023-07-29T20:05:26;1.70;;;1.60;;
3337;SDS011;1682;49.286;10.788;2023-07-29T20:07:54;1.63;;;1.13;;
3337;SDS011;1682;49.286;10.788;2023-07-29T20:10:21;2.60;;;1.50;;
3337;SDS011;1682;49.286;10.788;2023-07-29T20:12:48;1.63;;;1.53;;